Time;durP1;ratioP1;P1;durP2;ratioP2;P2;SDS_P1;SDS_P2;PMS_P1;PMS_P2;Temp;Humidity;BMP_temperature;BMP_pressure;BME280_temperature;BME280_humidity;BME280_pressure;Samples;Min_cycle;Max_cycle;Signal;HPM_P1;HPM_P2
2021/12/27 00:01:38;;;;;;;;;;;7.30;99.90;;;;;;4984872;28;19933;-70
2021/12/27 00:04:05;;;;;;;;;;;7.30;99.90;;;;;;4978231;28;19930;-71
2021/12/27 00:06:32;;;;;;;;;;;7.30;99.90;;;;;;4972278;28;19926;-71
2021/12/27 00:09:00;;;;;;;;;;;7.30;99.90;;;;;;4981021;28;20464;-70
2021/12/27 00:11:27;;;;;;;;;;;7.30;99.90;;;;;;4984249;28;19953;-70
2021/12/27 00:13:53;;;;;;;;;;;7.30;99.90;;;;;;4975247;28;19926;-70
2021/12/27 00:16:20;;;;;;;;;;;7.30;99.90;;;;;;4975216;28;19926;-70
2021/12/27 00:18:47;;;;;;;;;;;7.30;99.90;;;;;;4974503;28;19933;-70
2021/12/27 00:21:13;;;;;;;;;;;7.30;99.90;;;;;;4983088;28;20415;-70
2021/12/27 00:23:40;;;;;;;;;;;7.20;99.90;;;;;;4985229;28;20483;-70
2021/12/27 00:26:09;;;;;;;;;;;7.30;99.90;;;;;;4971916;28;19930;-71
2021/12/27 00:28:35;;;;;;;;;;;7.30;99.90;;;;;;4984151;28;19933;-71
2021/12/27 00:31:02;;;;;;;;;;;7.30;99.90;;;;;;4981738;28;19926;-70
2021/12/27 00:33:29;;;;;;;;;;;7.30;99.90;;;;;;4987205;28;19929;-70
2021/12/27 00:35:56;;;;;;;;;;;7.40;99.90;;;;;;4977920;28;19960;-71
2021/12/27 00:38:23;;;;;;;;;;;7.40;99.90;;;;;;4975365;28;20392;-70
2021/12/27 00:40:50;;;;;;;;;;;7.40;99.90;;;;;;4978897;28;19926;-70
2021/12/27 00:43:18;;;;;;;;;;;7.40;99.90;;;;;;4976630;28;19948;-70
2021/12/27 00:45:45;;;;;;;;;;;7.30;99.90;;;;;;4977823;28;19961;-70
2021/12/27 00:48:12;;;;;;;;;;;7.30;99.90;;;;;;4975983;28;19926;-71
2021/12/27 00:50:39;;;;;;;;;;;7.30;99.90;;;;;;4978991;28;19965;-70
2021/12/27 00:53:05;;;;;;;;;;;7.30;99.90;;;;;;4974136;28;19932;-70
2021/12/27 00:55:32;;;;;;;;;;;7.30;99.90;;;;;;4977048;28;20460;-71
2021/12/27 00:58:01;;;;;;;;;;;7.30;99.90;;;;;;4980971;28;19985;-71
2021/12/27 01:00:29;;;;;;;;;;;7.30;99.90;;;;;;4977903;28;20305;-71
2021/12/27 01:02:56;;;;;;;;;;;7.30;99.90;;;;;;4980624;28;19985;-71
2021/12/27 01:05:25;;;;;;;;;;;7.30;99.90;;;;;;4974668;28;21435;-71
2021/12/27 01:07:51;;;;;;;;;;;7.30;99.90;;;;;;4982227;28;19929;-70
2021/12/27 01:10:57;;;;;;;;;;;7.30;99.90;;;;;;4986807;28;19938;-71
2021/12/27 01:13:36;;;;;;;;;;;7.30;99.90;;;;;;4981666;28;20367;-71
2021/12/27 01:16:11;;;;;;;;;;;7.30;99.90;;;;;;4972572;28;19926;-70
2021/12/27 01:18:39;;;;;;;;;;;7.30;99.90;;;;;;4980748;28;19926;-70
2021/12/27 01:21:06;;;;;;;;;;;7.30;99.90;;;;;;4978084;28;19930;-71
2021/12/27 01:23:33;;;;;;;;;;;7.30;99.90;;;;;;4983943;28;20028;-70
2021/12/27 01:25:59;;;;;;;;;;;7.30;99.90;;;;;;4976726;28;19926;-70
2021/12/27 01:28:26;;;;;;;;;;;7.30;99.90;;;;;;4986294;28;19968;-70
2021/12/27 01:30:53;;;;;;;;;;;7.40;99.90;;;;;;4985077;28;19933;-70
2021/12/27 01:33:23;;;;;;;;;;;7.30;99.90;;;;;;4980568;28;19925;-72
2021/12/27 01:35:50;;;;;;;;;;;7.30;99.90;;;;;;4972026;28;19926;-71
2021/12/27 01:38:17;;;;;;;;;;;7.40;99.90;;;;;;4987768;28;19941;-70
2021/12/27 01:40:45;;;;;;;;;;;7.40;99.90;;;;;;4997390;28;19934;-71
2021/12/27 01:43:13;;;;;;;;;;;7.40;99.90;;;;;;4983724;28;20281;-72
2021/12/27 01:45:41;;;;;;;;;;;7.40;99.90;;;;;;4990379;28;20016;-71
2021/12/27 01:48:08;;;;;;;;;;;7.40;99.90;;;;;;4986124;28;20377;-70
2021/12/27 01:50:37;;;;;;;;;;;7.40;99.90;;;;;;4983794;28;19926;-70
2021/12/27 01:53:04;;;;;;;;;;;7.40;99.90;;;;;;4981239;28;19960;-70
2021/12/27 01:55:31;;;;;;;;;;;7.40;99.90;;;;;;4983189;28;20386;-71
2021/12/27 01:57:58;;;;;;;;;;;7.50;99.90;;;;;;4988679;28;19966;-70
2021/12/27 02:00:24;;;;;;;;;;;7.40;99.90;;;;;;4986830;28;19926;-70
2021/12/27 02:02:51;;;;;;;;;;;7.40;99.90;;;;;;4984724;28;19926;-71
2021/12/27 02:05:18;;;;;;;;;;;7.40;99.90;;;;;;4990991;28;19932;-70
2021/12/27 02:07:46;;;;;;;;;;;7.40;99.90;;;;;;4978475;28;19930;-71
2021/12/27 02:10:13;;;;;;;;;;;7.40;99.90;;;;;;4983434;28;19926;-71
2021/12/27 02:12:40;;;;;;;;;;;7.40;99.90;;;;;;4985930;28;19926;-71
2021/12/27 02:15:09;;;;;;;;;;;7.40;99.90;;;;;;4981440;28;19930;-70
2021/12/27 02:17:36;;;;;;;;;;;7.40;99.90;;;;;;4975627;28;19965;-70
2021/12/27 02:20:05;;;;;;;;;;;7.40;99.90;;;;;;4985699;28;19933;-71
2021/12/27 02:22:35;;;;;;;;;;;7.50;99.90;;;;;;4987251;28;20027;-70
2021/12/27 02:25:04;;;;;;;;;;;7.50;99.90;;;;;;4985888;28;20578;-70
2021/12/27 02:27:31;;;;;;;;;;;7.50;99.90;;;;;;4986608;28;20376;-71
2021/12/27 02:29:57;;;;;;;;;;;7.50;99.90;;;;;;4985721;28;19932;-70
2021/12/27 02:32:24;;;;;;;;;;;7.50;99.90;;;;;;4990695;28;19927;-70
2021/12/27 02:34:51;;;;;;;;;;;7.50;99.90;;;;;;4979692;28;19930;-70
2021/12/27 02:37:19;;;;;;;;;;;7.40;99.90;;;;;;4986252;28;19934;-70
2021/12/27 02:39:46;;;;;;;;;;;7.40;99.90;;;;;;4978571;28;19933;-70
2021/12/27 02:42:16;;;;;;;;;;;7.50;99.90;;;;;;4993369;28;19940;-70
2021/12/27 02:44:43;;;;;;;;;;;7.50;99.90;;;;;;4982626;28;19925;-71
2021/12/27 02:47:09;;;;;;;;;;;7.50;99.90;;;;;;4986816;28;20402;-71
2021/12/27 02:49:36;;;;;;;;;;;7.50;99.90;;;;;;4982022;28;19933;-71
2021/12/27 02:52:03;;;;;;;;;;;7.50;99.90;;;;;;4989018;28;20024;-71
2021/12/27 02:54:31;;;;;;;;;;;7.50;99.90;;;;;;4984195;28;19926;-70
2021/12/27 02:56:57;;;;;;;;;;;7.50;99.90;;;;;;4985157;28;19926;-70
2021/12/27 02:59:24;;;;;;;;;;;7.50;99.90;;;;;;4981064;28;19926;-70
2021/12/27 03:01:52;;;;;;;;;;;7.40;99.90;;;;;;4986012;28;20307;-70
2021/12/27 03:04:19;;;;;;;;;;;7.50;99.90;;;;;;4975185;28;19930;-70
2021/12/27 03:06:45;;;;;;;;;;;7.40;99.90;;;;;;4980920;28;19926;-70
2021/12/27 03:09:12;;;;;;;;;;;7.40;99.90;;;;;;4980954;28;19926;-70
2021/12/27 03:11:40;;;;;;;;;;;7.40;99.90;;;;;;4990650;28;19967;-70
2021/12/27 03:14:07;;;;;;;;;;;7.40;99.90;;;;;;4983977;28;19997;-70
2021/12/27 03:16:33;;;;;;;;;;;7.30;99.90;;;;;;4977299;28;20403;-70
2021/12/27 03:19:00;;;;;;;;;;;7.30;99.90;;;;;;4980549;28;20008;-70
2021/12/27 03:21:28;;;;;;;;;;;7.40;99.90;;;;;;4980126;28;19937;-70
2021/12/27 03:23:54;;;;;;;;;;;7.30;99.90;;;;;;4982551;28;19934;-70
2021/12/27 03:26:21;;;;;;;;;;;7.30;99.90;;;;;;4976600;28;19944;-70
2021/12/27 03:28:49;;;;;;;;;;;7.30;99.90;;;;;;4977652;28;19930;-70
2021/12/27 03:31:17;;;;;;;;;;;7.30;99.90;;;;;;4988933;28;20032;-70
2021/12/27 03:33:44;;;;;;;;;;;7.30;99.90;;;;;;4979470;28;20004;-70
2021/12/27 03:36:10;;;;;;;;;;;7.20;99.90;;;;;;4988707;28;19932;-71
2021/12/27 03:38:38;;;;;;;;;;;7.20;99.90;;;;;;4980323;28;19944;-71
2021/12/27 03:41:06;;;;;;;;;;;7.10;99.90;;;;;;4982898;28;20024;-70
2021/12/27 03:43:32;;;;;;;;;;;7.10;99.90;;;;;;4976581;28;20385;-69
2021/12/27 03:46:00;;;;;;;;;;;7.20;99.90;;;;;;4982439;28;19992;-70
2021/12/27 03:48:28;;;;;;;;;;;7.20;99.90;;;;;;4986590;28;19926;-71
2021/12/27 03:50:54;;;;;;;;;;;7.20;99.90;;;;;;4976366;28;20545;-70
2021/12/27 03:53:21;;;;;;;;;;;7.20;99.90;;;;;;4987600;28;19932;-70
2021/12/27 03:55:48;;;;;;;;;;;7.20;99.90;;;;;;4977066;28;19930;-70
2021/12/27 03:58:25;;;;;;;;;;;7.30;99.90;;;;;;4980701;28;19934;-71
2021/12/27 04:01:02;;;;;;;;;;;7.40;99.90;;;;;;4977029;28;19930;-70
2021/12/27 04:03:31;;;;;;;;;;;7.40;99.90;;;;;;4987326;28;19926;-71
2021/12/27 04:05:58;;;;;;;;;;;7.50;99.90;;;;;;4985130;28;20385;-71
2021/12/27 04:08:25;;;;;;;;;;;7.60;99.90;;;;;;4991839;28;19930;-74
2021/12/27 04:10:52;;;;;;;;;;;7.70;99.90;;;;;;4984797;28;19932;-71
2021/12/27 04:13:21;;;;;;;;;;;7.70;99.90;;;;;;4985922;28;20025;-71
2021/12/27 04:15:48;;;;;;;;;;;7.70;99.90;;;;;;4989960;28;19976;-71
2021/12/27 04:18:15;;;;;;;;;;;7.70;99.90;;;;;;4989554;28;19933;-70
2021/12/27 04:20:43;;;;;;;;;;;7.70;99.90;;;;;;4992762;28;20444;-71
2021/12/27 04:23:09;;;;;;;;;;;7.80;99.90;;;;;;4991669;28;19996;-73
2021/12/27 04:25:36;;;;;;;;;;;7.80;99.90;;;;;;4985121;28;19926;-70
2021/12/27 04:28:03;;;;;;;;;;;7.80;99.90;;;;;;4985938;28;19925;-71
2021/12/27 04:30:30;;;;;;;;;;;7.80;99.90;;;;;;4989870;28;19932;-71
2021/12/27 04:32:56;;;;;;;;;;;7.80;99.90;;;;;;4983557;28;19926;-72
2021/12/27 04:35:23;;;;;;;;;;;7.80;99.90;;;;;;4980952;28;19934;-70
2021/12/27 04:37:51;;;;;;;;;;;7.70;99.90;;;;;;4989407;28;19933;-70
2021/12/27 04:40:19;;;;;;;;;;;7.70;99.90;;;;;;4985067;28;20416;-70
2021/12/27 04:42:47;;;;;;;;;;;7.80;99.90;;;;;;4981986;28;19926;-70
2021/12/27 04:45:15;;;;;;;;;;;7.80;99.90;;;;;;4978455;28;19926;-70
2021/12/27 04:47:41;;;;;;;;;;;7.70;99.90;;;;;;4978895;28;19937;-71
2021/12/27 04:50:09;;;;;;;;;;;7.70;99.90;;;;;;4984201;28;19930;-70
2021/12/27 04:52:35;;;;;;;;;;;7.70;99.90;;;;;;4987770;28;19926;-71
2021/12/27 04:55:03;;;;;;;;;;;7.70;99.90;;;;;;4987893;28;20033;-73
2021/12/27 04:57:30;;;;;;;;;;;7.70;99.90;;;;;;4993379;28;19926;-71
2021/12/27 04:59:57;;;;;;;;;;;7.70;99.90;;;;;;4990842;28;20024;-70
2021/12/27 05:02:24;;;;;;;;;;;7.70;99.90;;;;;;4987033;28;19937;-71
2021/12/27 05:04:50;;;;;;;;;;;7.70;99.90;;;;;;4988965;28;19980;-72
2021/12/27 05:07:17;;;;;;;;;;;7.70;99.90;;;;;;4991781;28;19926;-72
2021/12/27 05:09:43;;;;;;;;;;;7.70;99.90;;;;;;4988885;28;19965;-71
2021/12/27 05:12:12;;;;;;;;;;;7.70;99.90;;;;;;4984892;28;19936;-71
2021/12/27 05:14:38;;;;;;;;;;;7.80;99.90;;;;;;4978236;28;19932;-70
2021/12/27 05:17:10;;;;;;;;;;;7.80;99.90;;;;;;4983257;28;20416;-70
2021/12/27 05:19:37;;;;;;;;;;;7.80;99.90;;;;;;4985380;28;20332;-70
2021/12/27 05:22:04;;;;;;;;;;;7.80;99.90;;;;;;4981606;28;19930;-71
2021/12/27 05:24:31;;;;;;;;;;;7.80;99.90;;;;;;4974908;28;19931;-70
2021/12/27 05:26:57;;;;;;;;;;;7.80;99.90;;;;;;4977177;28;19988;-70
2021/12/27 05:29:25;;;;;;;;;;;7.80;99.90;;;;;;4993573;28;19948;-73
2021/12/27 05:31:52;;;;;;;;;;;7.80;99.90;;;;;;4984451;28;19932;-71
2021/12/27 05:34:20;;;;;;;;;;;7.80;99.90;;;;;;4981456;28;20384;-71
2021/12/27 05:36:46;;;;;;;;;;;7.80;99.90;;;;;;4991155;28;19933;-70
2021/12/27 05:39:16;;;;;;;;;;;7.80;99.90;;;;;;4973930;28;20020;-71
2021/12/27 05:41:43;;;;;;;;;;;7.80;99.90;;;;;;4979907;28;19988;-70
2021/12/27 05:44:10;;;;;;;;;;;7.80;99.90;;;;;;4974044;28;19926;-70
2021/12/27 05:46:38;;;;;;;;;;;7.80;99.90;;;;;;4981881;28;20285;-70
2021/12/27 05:49:05;;;;;;;;;;;7.80;99.90;;;;;;4973012;28;19926;-70
2021/12/27 05:51:31;;;;;;;;;;;7.80;99.90;;;;;;4980479;28;19948;-70
2021/12/27 05:53:58;;;;;;;;;;;7.80;99.90;;;;;;4979529;28;19996;-71
2021/12/27 05:56:25;;;;;;;;;;;7.70;99.90;;;;;;4985493;28;20033;-71
2021/12/27 05:58:52;;;;;;;;;;;7.70;99.90;;;;;;4975547;28;19926;-71
2021/12/27 06:01:19;;;;;;;;;;;7.70;99.90;;;;;;4972721;28;19926;-71
2021/12/27 06:03:47;;;;;;;;;;;7.70;99.90;;;;;;4980152;28;19940;-71
2021/12/27 06:06:13;;;;;;;;;;;7.70;99.90;;;;;;4985935;28;19962;-71
2021/12/27 06:08:40;;;;;;;;;;;7.70;99.90;;;;;;4979000;28;20571;-71
2021/12/27 06:11:07;;;;;;;;;;;7.70;99.90;;;;;;4984988;28;19932;-71
2021/12/27 06:13:33;;;;;;;;;;;7.60;99.90;;;;;;4981773;28;19926;-72
2021/12/27 06:16:00;;;;;;;;;;;7.60;99.90;;;;;;4982715;28;19926;-71
2021/12/27 06:18:27;;;;;;;;;;;7.50;99.90;;;;;;4982127;28;20389;-71
2021/12/27 06:20:55;;;;;;;;;;;7.40;99.90;;;;;;4979607;28;19925;-71
2021/12/27 06:23:22;;;;;;;;;;;7.30;99.90;;;;;;4980529;28;19926;-70
2021/12/27 06:25:48;;;;;;;;;;;7.20;99.90;;;;;;4981547;28;19934;-70
2021/12/27 06:28:16;;;;;;;;;;;7.10;99.90;;;;;;4977792;28;19933;-71
2021/12/27 06:30:43;;;;;;;;;;;7.10;99.90;;;;;;4981835;28;19932;-72
2021/12/27 06:33:10;;;;;;;;;;;7.00;99.90;;;;;;4979119;28;19948;-71
2021/12/27 06:35:37;;;;;;;;;;;6.80;99.90;;;;;;4983623;28;19973;-71
2021/12/27 06:38:05;;;;;;;;;;;6.80;99.90;;;;;;4986725;28;19933;-70
2021/12/27 06:40:31;;;;;;;;;;;6.80;99.90;;;;;;4982023;28;19926;-68
2021/12/27 06:42:58;;;;;;;;;;;6.70;99.90;;;;;;4982835;28;19934;-69
2021/12/27 06:45:25;;;;;;;;;;;6.60;99.90;;;;;;4980774;28;19932;-69
2021/12/27 06:47:52;;;;;;;;;;;6.60;99.90;;;;;;4989643;28;20009;-69
2021/12/27 06:50:19;;;;;;;;;;;6.50;99.90;;;;;;4976642;28;19961;-69
2021/12/27 06:52:46;;;;;;;;;;;6.50;99.90;;;;;;4980098;28;19930;-69
2021/12/27 06:55:14;;;;;;;;;;;6.50;99.90;;;;;;4974424;28;19934;-68
2021/12/27 06:57:41;;;;;;;;;;;6.50;99.90;;;;;;4985967;28;20021;-70
2021/12/27 07:00:09;;;;;;;;;;;6.40;99.90;;;;;;4989493;28;20423;-70
2021/12/27 07:02:36;;;;;;;;;;;6.20;99.90;;;;;;4982659;28;20307;-70
2021/12/27 07:05:03;;;;;;;;;;;6.20;99.90;;;;;;4980483;28;19930;-70
2021/12/27 07:07:29;;;;;;;;;;;6.20;99.90;;;;;;4981388;28;19926;-70
2021/12/27 07:09:56;;;;;;;;;;;6.00;99.90;;;;;;4985793;28;19947;-70
2021/12/27 07:12:24;;;;;;;;;;;6.00;99.90;;;;;;4980697;28;19955;-71
2021/12/27 07:14:53;;;;;;;;;;;5.90;99.90;;;;;;4989162;28;19930;-71
2021/12/27 07:17:20;;;;;;;;;;;5.90;99.90;;;;;;4977160;28;20001;-70
2021/12/27 07:19:50;;;;;;;;;;;5.70;99.90;;;;;;4991526;28;19940;-69
2021/12/27 07:22:17;;;;;;;;;;;5.80;99.90;;;;;;4985582;28;20359;-70
2021/12/27 07:24:43;;;;;;;;;;;5.90;99.90;;;;;;4990217;28;19933;-69
2021/12/27 07:27:10;;;;;;;;;;;5.90;99.90;;;;;;4985361;28;19952;-68
2021/12/27 07:29:38;;;;;;;;;;;6.00;99.90;;;;;;4984765;28;20024;-68
2021/12/27 07:32:05;;;;;;;;;;;6.20;99.90;;;;;;4977545;28;19926;-69
2021/12/27 07:34:32;;;;;;;;;;;6.10;99.90;;;;;;4983783;28;19934;-69
2021/12/27 07:36:59;;;;;;;;;;;6.10;99.90;;;;;;4977862;28;19926;-69
2021/12/27 07:39:26;;;;;;;;;;;6.10;99.90;;;;;;4976414;28;20411;-69
2021/12/27 07:41:53;;;;;;;;;;;6.10;99.90;;;;;;4983700;28;19941;-68
2021/12/27 07:44:20;;;;;;;;;;;6.10;99.90;;;;;;4979048;28;19933;-68
2021/12/27 07:46:48;;;;;;;;;;;6.10;99.90;;;;;;4978604;28;20393;-69
2021/12/27 07:49:15;;;;;;;;;;;6.20;99.90;;;;;;4982546;28;19933;-70
2021/12/27 07:51:41;;;;;;;;;;;6.30;99.90;;;;;;4980724;28;19948;-68
2021/12/27 07:54:08;;;;;;;;;;;6.30;99.90;;;;;;4982177;28;19933;-70
2021/12/27 07:56:35;;;;;;;;;;;6.40;99.90;;;;;;4979784;28;19932;-68
2021/12/27 07:59:04;;;;;;;;;;;6.40;99.90;;;;;;4983920;28;19945;-69
2021/12/27 08:01:30;;;;;;;;;;;6.40;99.90;;;;;;4981032;28;19926;-69
2021/12/27 08:03:59;;;;;;;;;;;6.50;99.90;;;;;;4984498;28;20403;-69
2021/12/27 08:06:25;;;;;;;;;;;6.50;99.90;;;;;;4982978;28;19930;-68
2021/12/27 08:08:52;;;;;;;;;;;6.40;99.90;;;;;;4985812;28;19930;-69
2021/12/27 08:11:19;;;;;;;;;;;6.40;99.90;;;;;;4983060;28;19934;-67
2021/12/27 08:13:45;;;;;;;;;;;6.30;99.90;;;;;;4983577;28;20466;-70
2021/12/27 08:16:12;;;;;;;;;;;6.40;99.90;;;;;;4981547;28;20055;-68
2021/12/27 08:18:41;;;;;;;;;;;6.30;99.90;;;;;;4989622;28;19940;-69
2021/12/27 08:21:09;;;;;;;;;;;6.30;99.90;;;;;;4989711;28;20000;-71
2021/12/27 08:23:35;;;;;;;;;;;6.40;99.90;;;;;;4990220;28;20021;-69
2021/12/27 08:26:02;;;;;;;;;;;6.40;99.90;;;;;;4983656;28;20570;-68
2021/12/27 08:28:29;;;;;;;;;;;6.40;99.90;;;;;;4978193;28;19934;-69
2021/12/27 08:30:56;;;;;;;;;;;6.40;99.90;;;;;;4989300;28;19926;-68
2021/12/27 08:33:22;;;;;;;;;;;6.40;99.90;;;;;;4980792;28;20025;-69
2021/12/27 08:35:49;;;;;;;;;;;6.50;99.90;;;;;;4979688;28;19925;-69
2021/12/27 08:38:18;;;;;;;;;;;6.50;99.90;;;;;;4983788;28;19925;-69
2021/12/27 08:40:45;;;;;;;;;;;6.60;99.90;;;;;;4984848;28;20012;-69
2021/12/27 08:43:12;;;;;;;;;;;6.60;99.90;;;;;;4985848;28;19932;-69
2021/12/27 08:45:38;;;;;;;;;;;6.60;99.90;;;;;;4978869;28;20315;-69
2021/12/27 08:48:05;;;;;;;;;;;6.70;99.90;;;;;;4980186;28;19964;-69
2021/12/27 08:50:32;;;;;;;;;;;6.70;99.90;;;;;;4979806;28;19941;-69
2021/12/27 08:52:59;;;;;;;;;;;6.70;99.90;;;;;;4974684;28;19944;-70
2021/12/27 08:55:27;;;;;;;;;;;6.70;99.90;;;;;;4984403;28;19964;-70
2021/12/27 08:57:53;;;;;;;;;;;6.80;99.90;;;;;;4977791;28;19976;-70
2021/12/27 09:00:20;;;;;;;;;;;6.80;99.90;;;;;;4982247;28;19933;-69
2021/12/27 09:02:47;;;;;;;;;;;6.80;99.90;;;;;;4983383;28;20314;-69
2021/12/27 09:05:14;;;;;;;;;;;7.00;99.90;;;;;;4984406;28;20020;-69
2021/12/27 09:07:41;;;;;;;;;;;7.00;99.90;;;;;;4982442;28;20403;-69
2021/12/27 09:10:08;;;;;;;;;;;7.00;99.90;;;;;;4980130;28;20400;-69
2021/12/27 09:12:38;;;;;;;;;;;7.10;99.90;;;;;;4989268;28;19932;-69
2021/12/27 09:15:05;;;;;;;;;;;7.20;99.90;;;;;;4985216;28;19973;-69
2021/12/27 09:17:31;;;;;;;;;;;7.20;99.90;;;;;;4983885;28;20299;-69
2021/12/27 09:19:58;;;;;;;;;;;7.30;99.90;;;;;;4982931;28;20020;-69
2021/12/27 09:22:25;;;;;;;;;;;7.40;99.90;;;;;;4985384;28;21250;-69
2021/12/27 09:24:52;;;;;;;;;;;7.60;99.90;;;;;;4974918;28;19965;-69
2021/12/27 09:27:20;;;;;;;;;;;7.70;99.90;;;;;;4985519;28;20394;-69
2021/12/27 09:29:49;;;;;;;;;;;7.80;99.90;;;;;;4978335;28;19934;-69
2021/12/27 09:32:16;;;;;;;;;;;7.80;99.90;;;;;;4970628;28;20353;-70
2021/12/27 09:34:42;;;;;;;;;;;7.90;99.90;;;;;;4973718;28;19929;-69
2021/12/27 09:37:09;;;;;;;;;;;8.00;99.90;;;;;;4973663;28;20029;-68
2021/12/27 09:39:36;;;;;;;;;;;8.10;99.90;;;;;;4976346;28;19926;-70
2021/12/27 09:42:03;;;;;;;;;;;8.20;99.90;;;;;;4975332;28;19926;-70
2021/12/27 09:44:30;;;;;;;;;;;8.20;99.90;;;;;;4974783;28;19981;-68
2021/12/27 09:46:58;;;;;;;;;;;8.20;99.90;;;;;;4972483;28;20001;-69
2021/12/27 09:49:29;;;;;;;;;;;8.30;99.90;;;;;;4975674;28;20529;-69
2021/12/27 09:51:57;;;;;;;;;;;8.30;99.90;;;;;;4971271;28;20444;-69
2021/12/27 09:54:24;;;;;;;;;;;8.40;99.90;;;;;;4974539;28;19932;-68
2021/12/27 09:56:51;;;;;;;;;;;8.40;99.90;;;;;;4974208;28;19929;-69
2021/12/27 09:59:17;;;;;;;;;;;8.40;99.90;;;;;;4974062;28;20018;-68
2021/12/27 10:01:47;;;;;;;;;;;8.60;99.90;;;;;;4973773;28;19925;-69
2021/12/27 10:04:15;;;;;;;;;;;8.60;99.90;;;;;;4973887;28;20308;-71
2021/12/27 10:06:43;;;;;;;;;;;8.60;99.90;;;;;;4974404;28;19933;-68
2021/12/27 10:09:09;;;;;;;;;;;8.50;99.90;;;;;;4979099;28;19941;-68
2021/12/27 10:11:37;;;;;;;;;;;8.60;99.90;;;;;;4975246;28;19969;-69
2021/12/27 10:14:05;;;;;;;;;;;8.80;99.90;;;;;;4975322;28;19934;-69
2021/12/27 10:16:33;;;;;;;;;;;8.90;99.90;;;;;;4975509;28;19970;-69
2021/12/27 10:19:01;;;;;;;;;;;8.90;99.90;;;;;;4975780;28;20397;-70
2021/12/27 10:21:29;;;;;;;;;;;8.80;99.90;;;;;;4975118;28;20344;-69
2021/12/27 10:24:04;;;;;;;;;;;8.90;99.90;;;;;;4977494;28;19941;-70
2021/12/27 10:26:31;;;;;;;;;;;8.90;99.90;;;;;;4975624;28;19926;-69
2021/12/27 10:29:11;;;;;;;;;;;8.90;99.90;;;;;;4979937;28;19992;-69
2021/12/27 10:31:53;;;;;;;;;;;9.00;99.90;;;;;;4976499;28;20389;-69
2021/12/27 10:34:20;;;;;;;;;;;9.00;99.90;;;;;;4975609;28;21491;-69
2021/12/27 10:36:59;;;;;;;;;;;8.90;99.90;;;;;;4976633;28;19934;-70
2021/12/27 10:39:28;;;;;;;;;;;8.80;99.90;;;;;;4980441;28;19936;-70
2021/12/27 10:42:05;;;;;;;;;;;8.80;99.90;;;;;;4977206;28;19977;-68
2021/12/27 10:44:34;;;;;;;;;;;8.80;99.90;;;;;;4975896;28;20389;-67
2021/12/27 10:47:01;;;;;;;;;;;8.90;99.90;;;;;;4979576;28;19932;-68
2021/12/27 10:49:44;;;;;;;;;;;9.00;99.90;;;;;;4980629;28;19930;-69
2021/12/27 10:52:12;;;;;;;;;;;9.10;99.90;;;;;;4977754;28;19926;-68
2021/12/27 10:54:47;;;;;;;;;;;9.10;99.90;;;;;;4975824;28;19934;-70
2021/12/27 10:57:15;;;;;;;;;;;9.20;99.90;;;;;;4978327;28;19925;-68
2021/12/27 10:59:42;;;;;;;;;;;9.30;99.90;;;;;;4979581;28;19938;-70
2021/12/27 11:02:10;;;;;;;;;;;9.40;99.90;;;;;;4974122;28;20021;-70
2021/12/27 11:04:39;;;;;;;;;;;9.40;99.90;;;;;;4975795;28;19939;-71
2021/12/27 11:07:06;;;;;;;;;;;9.50;99.90;;;;;;4977099;28;19933;-69
2021/12/27 11:09:35;;;;;;;;;;;9.50;99.90;;;;;;4972359;28;20413;-68
2021/12/27 11:12:02;;;;;;;;;;;9.50;99.90;;;;;;4979796;28;19933;-70
2021/12/27 11:14:29;;;;;;;;;;;9.50;99.90;;;;;;4979104;28;19938;-69
2021/12/27 11:16:56;;;;;;;;;;;9.60;99.90;;;;;;4976618;28;20314;-69
2021/12/27 11:19:23;;;;;;;;;;;9.60;99.90;;;;;;4980788;28;20301;-68
2021/12/27 11:21:50;;;;;;;;;;;9.60;99.90;;;;;;4977390;28;19934;-69
2021/12/27 11:24:18;;;;;;;;;;;9.70;99.90;;;;;;4971635;28;20025;-68
2021/12/27 11:26:46;;;;;;;;;;;9.70;99.90;;;;;;4979532;28;19965;-69
2021/12/27 11:29:15;;;;;;;;;;;9.70;99.90;;;;;;4980631;28;19933;-69
2021/12/27 11:31:42;;;;;;;;;;;9.70;99.90;;;;;;4978586;28;20423;-69
2021/12/27 11:34:12;;;;;;;;;;;9.70;99.90;;;;;;4976898;28;20005;-68
2021/12/27 11:36:39;;;;;;;;;;;9.70;99.90;;;;;;4978538;28;19943;-68
2021/12/27 11:39:18;;;;;;;;;;;9.70;99.90;;;;;;4977494;28;19925;-67
2021/12/27 11:41:57;;;;;;;;;;;9.70;99.90;;;;;;4984412;28;20295;-68
2021/12/27 11:44:33;;;;;;;;;;;9.70;99.90;;;;;;4978986;28;19981;-68
2021/12/27 11:47:00;;;;;;;;;;;9.80;99.90;;;;;;4976308;28;19926;-69
2021/12/27 11:49:32;;;;;;;;;;;9.80;99.90;;;;;;4971809;28;19926;-67
2021/12/27 11:52:12;;;;;;;;;;;9.80;99.90;;;;;;4977628;28;20399;-68
2021/12/27 11:54:48;;;;;;;;;;;9.90;99.90;;;;;;4978382;28;19940;-69
2021/12/27 11:57:37;;;;;;;;;;;9.90;99.90;;;;;;4981381;28;19930;-68
2021/12/27 12:00:31;;;;;;;;;;;10.00;99.90;;;;;;4982300;28;19926;-68
2021/12/27 12:03:10;;;;;;;;;;;10.10;99.90;;;;;;4976138;28;19984;-68
2021/12/27 12:05:39;;;;;;;;;;;10.20;99.90;;;;;;4975956;28;19934;-69
2021/12/27 12:08:06;;;;;;;;;;;10.30;99.90;;;;;;4986096;28;19976;-68
2021/12/27 12:10:33;;;;;;;;;;;10.30;99.90;;;;;;4978666;28;19930;-68
2021/12/27 12:13:14;;;;;;;;;;;10.40;99.90;;;;;;4976300;28;19929;-67
2021/12/27 12:15:56;;;;;;;;;;;10.40;99.90;;;;;;4971321;28;20293;-67
2021/12/27 12:18:23;;;;;;;;;;;10.50;99.90;;;;;;4974846;28;20055;-68
2021/12/27 12:20:49;;;;;;;;;;;10.50;99.90;;;;;;4978460;28;19933;-69
2021/12/27 12:23:16;;;;;;;;;;;10.60;99.90;;;;;;4975782;28;19961;-68
2021/12/27 12:25:43;;;;;;;;;;;10.60;99.90;;;;;;4981251;28;20012;-69
2021/12/27 12:28:11;;;;;;;;;;;10.60;99.90;;;;;;4972920;28;20423;-69
2021/12/27 12:30:39;;;;;;;;;;;10.60;99.90;;;;;;4977206;28;20037;-68
2021/12/27 12:33:08;;;;;;;;;;;10.60;99.90;;;;;;4973423;28;20424;-69
2021/12/27 12:35:36;;;;;;;;;;;10.60;99.90;;;;;;4954632;28;19926;-67
2021/12/27 12:38:18;;;;;;;;;;;10.60;99.90;;;;;;4974459;28;20137;-68
2021/12/27 12:40:45;;;;;;;;;;;10.50;99.90;;;;;;4976489;28;19965;-68
2021/12/27 12:43:12;;;;;;;;;;;10.50;99.90;;;;;;4977292;28;22308;-68
2021/12/27 12:45:39;;;;;;;;;;;10.50;99.90;;;;;;4975715;28;19926;-68
2021/12/27 12:48:06;;;;;;;;;;;10.50;99.90;;;;;;4978585;28;19930;-68
2021/12/27 12:50:35;;;;;;;;;;;10.40;99.90;;;;;;4976063;28;19969;-67
2021/12/27 12:53:05;;;;;;;;;;;10.40;99.90;;;;;;4974951;28;19953;-68
2021/12/27 12:55:35;;;;;;;;;;;10.40;99.90;;;;;;4973079;28;19957;-68
2021/12/27 12:58:02;;;;;;;;;;;10.50;99.90;;;;;;4976059;28;20367;-67
2021/12/27 13:00:29;;;;;;;;;;;10.40;99.90;;;;;;4970899;28;20013;-67
2021/12/27 13:03:07;;;;;;;;;;;10.40;99.90;;;;;;4970283;28;20729;-68
2021/12/27 13:05:35;;;;;;;;;;;10.40;99.90;;;;;;4975771;28;19932;-68
2021/12/27 13:08:02;;;;;;;;;;;10.40;99.90;;;;;;4977088;28;20335;-68
2021/12/27 13:10:29;;;;;;;;;;;10.40;99.90;;;;;;4968596;28;19988;-68
2021/12/27 13:12:57;;;;;;;;;;;10.40;99.90;;;;;;4977982;28;19926;-70
2021/12/27 13:15:25;;;;;;;;;;;10.40;99.90;;;;;;4980104;28;19937;-68
2021/12/27 13:18:05;;;;;;;;;;;10.40;99.90;;;;;;4973963;28;20897;-68
2021/12/27 13:20:32;;;;;;;;;;;10.40;99.90;;;;;;4978158;28;20025;-66
2021/12/27 13:23:02;;;;;;;;;;;10.40;99.90;;;;;;4979779;28;19930;-69
2021/12/27 13:25:33;;;;;;;;;;;10.40;99.90;;;;;;4978518;28;20329;-67
2021/12/27 13:28:11;;;;;;;;;;;10.40;99.90;;;;;;4983786;28;20384;-67
2021/12/27 13:30:45;;;;;;;;;;;10.40;99.90;;;;;;4976450;28;19926;-67
2021/12/27 13:33:12;;;;;;;;;;;10.40;99.90;;;;;;4981193;28;19930;-66
2021/12/27 13:35:40;;;;;;;;;;;10.30;99.90;;;;;;4972800;28;19976;-67
2021/12/27 13:38:15;;;;;;;;;;;10.30;99.90;;;;;;4978994;28;20381;-67
2021/12/27 13:40:44;;;;;;;;;;;10.30;99.90;;;;;;4974852;28;19933;-67
2021/12/27 13:43:11;;;;;;;;;;;10.30;99.90;;;;;;4979266;28;19972;-67
2021/12/27 13:45:41;;;;;;;;;;;10.30;99.90;;;;;;4972266;28;20615;-67
2021/12/27 13:48:09;;;;;;;;;;;10.30;99.90;;;;;;4974691;28;19926;-67
2021/12/27 13:50:36;;;;;;;;;;;10.20;99.90;;;;;;4971438;28;20096;-68
2021/12/27 13:53:10;;;;;;;;;;;10.20;99.90;;;;;;4971055;28;20036;-70
2021/12/27 13:55:38;;;;;;;;;;;10.20;99.90;;;;;;4973150;28;20427;-69
2021/12/27 13:58:15;;;;;;;;;;;10.20;99.90;;;;;;4974403;28;20190;-69
2021/12/27 14:00:42;;;;;;;;;;;10.20;99.90;;;;;;4976739;28;19997;-70
2021/12/27 14:03:23;;;;;;;;;;;10.20;99.90;;;;;;4972091;28;19949;-70
2021/12/27 14:05:52;;;;;;;;;;;10.10;99.90;;;;;;4977082;28;20020;-68
2021/12/27 14:08:19;;;;;;;;;;;10.10;99.90;;;;;;4971452;28;19933;-68
2021/12/27 14:11:00;;;;;;;;;;;10.10;99.90;;;;;;4974774;28;20384;-69
2021/12/27 14:13:42;;;;;;;;;;;10.10;99.90;;;;;;4979007;28;19926;-69
2021/12/27 14:16:17;;;;;;;;;;;10.10;99.90;;;;;;4976205;28;19932;-71
2021/12/27 14:18:59;;;;;;;;;;;10.10;99.90;;;;;;4977090;28;19926;-68
2021/12/27 14:21:26;;;;;;;;;;;10.10;99.90;;;;;;4978779;28;20025;-67
2021/12/27 14:24:01;;;;;;;;;;;10.10;99.90;;;;;;4969807;28;19970;-67
2021/12/27 14:26:29;;;;;;;;;;;10.10;99.90;;;;;;4980815;28;20340;-68
2021/12/27 14:29:10;;;;;;;;;;;10.10;99.90;;;;;;4983387;28;19965;-68
2021/12/27 14:31:39;;;;;;;;;;;10.10;99.90;;;;;;4977900;28;20480;-68
2021/12/27 14:34:06;;;;;;;;;;;10.00;99.90;;;;;;4973953;28;20020;-67
2021/12/27 14:36:32;;;;;;;;;;;10.00;99.90;;;;;;4978919;28;19930;-67